createdAt,value
2019-05-26T00:01:42.968Z,8.70
2019-05-26T00:04:11.741Z,8.70
2019-05-26T00:06:40.539Z,8.70
2019-05-26T00:09:09.343Z,8.70
2019-05-26T00:11:38.176Z,8.70
2019-05-26T00:14:06.965Z,8.70
2019-05-26T00:16:36.102Z,8.70
2019-05-26T00:19:05.402Z,8.60
2019-05-26T00:21:34.391Z,8.80
2019-05-26T00:24:03.180Z,8.80
2019-05-26T00:26:31.971Z,8.80
2019-05-26T00:29:03.288Z,8.80
2019-05-26T00:31:32.069Z,8.70
2019-05-26T00:34:00.920Z,8.60
2019-05-26T00:36:29.723Z,8.70
2019-05-26T00:38:58.880Z,8.70
2019-05-26T00:41:29.048Z,8.60
2019-05-26T00:43:57.830Z,8.60
2019-05-26T00:46:26.622Z,8.60
2019-05-26T00:48:55.754Z,8.60
2019-05-26T00:51:24.567Z,8.60
2019-05-26T00:53:53.384Z,8.60
2019-05-26T00:56:22.211Z,8.60
2019-05-26T00:58:51.012Z,8.60
2019-05-26T01:01:19.846Z,8.60
2019-05-26T01:03:48.688Z,8.60
2019-05-26T01:06:17.484Z,8.50
2019-05-26T01:08:46.276Z,8.50
2019-05-26T01:11:15.115Z,8.40
2019-05-26T01:13:44.994Z,8.40
2019-05-26T01:16:13.961Z,8.40
2019-05-26T01:18:42.930Z,8.40
2019-05-26T01:21:11.734Z,8.40
2019-05-26T01:23:40.522Z,8.40
2019-05-26T01:26:09.364Z,8.30
2019-05-26T01:28:38.147Z,8.30
2019-05-26T01:31:06.968Z,8.30
2019-05-26T01:33:35.780Z,8.30
2019-05-26T01:36:04.966Z,8.30
2019-05-26T01:38:34.068Z,8.30
2019-05-26T01:41:03.851Z,8.20
2019-05-26T01:43:32.711Z,8.20
2019-05-26T01:46:01.503Z,8.20
2019-05-26T01:48:30.661Z,8.20
2019-05-26T01:50:59.433Z,8.20
2019-05-26T01:53:28.629Z,8.20
2019-05-26T01:55:57.416Z,8.20
2019-05-26T01:58:26.593Z,8.10
2019-05-26T02:00:55.399Z,8.10
2019-05-26T02:03:24.192Z,8.10
2019-05-26T02:05:53.038Z,8.10
2019-05-26T02:08:21.838Z,8.10
2019-05-26T02:10:50.858Z,8.10
2019-05-26T02:13:19.759Z,8.10
2019-05-26T02:15:48.575Z,8.10
2019-05-26T02:18:17.408Z,8.10
2019-05-26T02:20:46.245Z,8.10
2019-05-26T02:23:15.033Z,8.00
2019-05-26T02:25:43.878Z,8.10
2019-05-26T02:28:12.691Z,8.10
2019-05-26T02:30:41.517Z,8.10
2019-05-26T02:33:10.371Z,8.10
2019-05-26T02:35:39.157Z,8.10
2019-05-26T02:38:07.961Z,8.10
2019-05-26T02:40:36.925Z,8.10
2019-05-26T02:43:05.775Z,8.10
2019-05-26T02:45:34.569Z,8.10
2019-05-26T02:48:03.585Z,8.00
2019-05-26T02:50:32.386Z,8.10
2019-05-26T02:53:01.209Z,8.10
2019-05-26T02:55:29.936Z,8.10
2019-05-26T02:57:58.733Z,8.10
2019-05-26T03:00:42.547Z,8.10
2019-05-26T03:03:12.353Z,8.10
2019-05-26T03:05:44.208Z,8.00
2019-05-26T03:08:15.348Z,8.00
2019-05-26T03:10:44.346Z,8.00
2019-05-26T03:13:17.231Z,7.90
2019-05-26T03:15:46.873Z,7.90
2019-05-26T03:18:15.973Z,7.90
2019-05-26T03:20:47.729Z,7.90
2019-05-26T03:23:16.793Z,7.90
2019-05-26T03:25:45.806Z,7.90
2019-05-26T03:28:14.652Z,7.80
2019-05-26T03:30:43.472Z,7.90
2019-05-26T03:33:12.270Z,7.80
2019-05-26T03:35:41.125Z,7.80
2019-05-26T03:38:10.238Z,7.80
2019-05-26T03:40:38.992Z,7.80
2019-05-26T03:43:07.796Z,7.70
2019-05-26T03:45:42.545Z,7.70
2019-05-26T03:48:11.415Z,7.60
2019-05-26T03:50:40.190Z,7.60
2019-05-26T03:53:08.966Z,7.60
2019-05-26T03:55:37.833Z,7.60
2019-05-26T03:58:06.749Z,7.60
2019-05-26T04:00:35.669Z,7.60
2019-05-26T04:03:04.763Z,7.60
2019-05-26T04:05:33.513Z,7.60
2019-05-26T04:08:04.962Z,7.60
2019-05-26T04:10:32.768Z,7.50
2019-05-26T04:13:01.600Z,7.50
2019-05-26T04:15:30.317Z,7.50
2019-05-26T04:17:59.171Z,7.50
2019-05-26T04:20:28.315Z,7.50
2019-05-26T04:22:57.131Z,7.50
2019-05-26T04:25:26.519Z,7.50
2019-05-26T04:27:55.365Z,7.50
2019-05-26T04:30:24.160Z,7.50
2019-05-26T04:32:53.010Z,7.50
2019-05-26T04:35:21.797Z,7.50
2019-05-26T04:37:50.614Z,7.40
2019-05-26T04:40:27.332Z,7.40
2019-05-26T04:42:50.673Z,7.40
2019-05-26T04:45:19.525Z,7.40
2019-05-26T04:47:48.250Z,7.40
2019-05-26T04:50:17.348Z,7.40
2019-05-26T04:53:04.516Z,7.40
2019-05-26T04:55:17.694Z,7.30
2019-05-26T04:57:46.487Z,7.30
2019-05-26T05:00:16.030Z,7.40
2019-05-26T05:02:44.830Z,7.40
2019-05-26T05:05:15.004Z,7.40
2019-05-26T05:07:43.810Z,7.40
2019-05-26T05:10:12.839Z,7.40
2019-05-26T05:12:41.737Z,7.50
2019-05-26T05:15:10.838Z,7.50
2019-05-26T05:17:39.680Z,7.50
2019-05-26T05:20:08.950Z,7.40
2019-05-26T05:22:39.163Z,7.40
2019-05-26T05:25:14.606Z,7.40
2019-05-26T05:27:39.753Z,7.40
2019-05-26T05:30:09.996Z,7.40
2019-05-26T05:32:39.214Z,7.40
2019-05-26T05:35:10.028Z,7.40
2019-05-26T05:37:38.938Z,7.40
2019-05-26T05:40:08.652Z,7.40
2019-05-26T05:42:37.450Z,7.30
2019-05-26T05:45:08.177Z,7.30
2019-05-26T05:47:37.255Z,7.20
2019-05-26T05:50:10.915Z,7.20
2019-05-26T05:52:39.721Z,7.20
2019-05-26T05:55:08.749Z,7.20
2019-05-26T05:57:37.555Z,7.20
2019-05-26T06:00:10.791Z,7.20
2019-05-26T06:02:39.629Z,7.20
2019-05-26T06:05:09.034Z,7.20
2019-05-26T06:07:37.823Z,7.20
2019-05-26T06:10:10.090Z,7.20
2019-05-26T06:12:38.857Z,7.10
2019-05-26T06:15:13.411Z,7.10
2019-05-26T06:17:43.217Z,7.10
2019-05-26T06:20:12.883Z,7.00
2019-05-26T06:22:41.756Z,7.00
2019-05-26T06:25:12.336Z,7.00
2019-05-26T06:27:41.175Z,7.00
2019-05-26T06:30:10.773Z,7.00
2019-05-26T06:32:39.589Z,7.00
2019-05-26T06:35:08.746Z,7.00
2019-05-26T06:37:37.538Z,7.10
2019-05-26T06:40:08.303Z,7.10
2019-05-26T06:42:38.318Z,7.10
2019-05-26T06:45:07.522Z,7.20
2019-05-26T06:47:36.345Z,7.20
2019-05-26T06:50:09.862Z,7.20
2019-05-26T06:52:39.106Z,7.20
2019-05-26T06:55:08.205Z,7.20
2019-05-26T06:57:37.010Z,7.20
2019-05-26T07:00:07.440Z,7.20
2019-05-26T07:02:36.633Z,7.30
2019-05-26T07:05:09.565Z,7.30
2019-05-26T07:07:38.789Z,7.30
2019-05-26T07:10:08.117Z,7.30
2019-05-26T07:12:39.923Z,7.30
2019-05-26T07:15:10.575Z,7.30
2019-05-26T07:17:39.402Z,7.30
2019-05-26T07:20:11.729Z,7.40
2019-05-26T07:22:40.571Z,7.40
2019-05-26T07:25:09.929Z,7.40
2019-05-26T07:27:38.762Z,7.40
2019-05-26T07:30:08.152Z,7.40
2019-05-26T07:32:37.004Z,7.40
2019-05-26T07:35:07.733Z,7.40
2019-05-26T07:37:36.565Z,7.40
2019-05-26T07:40:05.778Z,7.50
2019-05-26T07:42:34.993Z,7.50
2019-05-26T07:45:04.695Z,7.50
2019-05-26T07:47:33.589Z,7.50
2019-05-26T07:50:02.533Z,7.50
2019-05-26T07:52:31.405Z,7.50
2019-05-26T07:55:00.164Z,7.40
2019-05-26T07:57:28.961Z,7.40
2019-05-26T07:59:57.762Z,7.40
2019-05-26T08:02:26.608Z,7.40
2019-05-26T08:04:55.416Z,7.40
2019-05-26T08:07:24.229Z,7.30
2019-05-26T08:09:53.412Z,7.30
2019-05-26T08:12:26.820Z,7.30
2019-05-26T08:14:52.688Z,7.30
2019-05-26T08:17:21.472Z,7.40
2019-05-26T08:19:50.317Z,7.50
2019-05-26T08:22:19.498Z,7.50
2019-05-26T08:24:48.295Z,7.50
2019-05-26T08:27:17.470Z,7.60
2019-05-26T08:29:46.315Z,7.70
2019-05-26T08:32:15.269Z,7.80
2019-05-26T08:34:44.126Z,7.80
2019-05-26T08:37:12.962Z,7.90
2019-05-26T08:39:41.765Z,7.90
2019-05-26T08:42:24.637Z,8.00
2019-05-26T08:44:41.336Z,8.00
2019-05-26T08:47:10.245Z,7.90
2019-05-26T08:49:38.977Z,7.90
2019-05-26T08:52:07.824Z,7.90
2019-05-26T08:54:36.675Z,7.90
2019-05-26T08:57:06.961Z,7.90
2019-05-26T08:59:35.691Z,7.90
2019-05-26T09:02:04.809Z,8.00
2019-05-26T09:04:33.675Z,8.00
2019-05-26T09:07:02.462Z,8.00
2019-05-26T09:09:31.243Z,8.00
2019-05-26T09:12:00.041Z,8.00
2019-05-26T09:14:29.134Z,8.00
2019-05-26T09:16:58.015Z,8.00
2019-05-26T09:19:26.813Z,8.00
2019-05-26T09:21:55.578Z,8.00
2019-05-26T09:24:24.382Z,8.00
2019-05-26T09:26:53.475Z,8.00
2019-05-26T09:29:22.298Z,8.00
2019-05-26T09:31:51.146Z,7.90
2019-05-26T09:34:20.033Z,7.90
2019-05-26T09:36:48.852Z,8.00
2019-05-26T09:39:17.690Z,7.90
2019-05-26T09:41:46.503Z,8.00
2019-05-26T09:44:15.236Z,8.00
2019-05-26T09:46:44.386Z,8.10
2019-05-26T09:49:13.179Z,8.00
2019-05-26T09:51:41.969Z,8.00
2019-05-26T09:54:12.745Z,8.00
2019-05-26T09:56:41.197Z,8.10
2019-05-26T09:59:10.050Z,8.10
2019-05-26T10:01:38.860Z,8.10
2019-05-26T10:04:07.664Z,8.10
2019-05-26T10:06:36.410Z,8.00
2019-05-26T10:09:07.577Z,8.00
2019-05-26T10:11:36.378Z,8.00
2019-05-26T10:14:05.212Z,8.10
2019-05-26T10:16:34.361Z,8.10
2019-05-26T10:19:03.166Z,8.10
2019-05-26T10:21:31.998Z,8.10
2019-05-26T10:24:00.804Z,8.10
2019-05-26T10:26:29.651Z,8.10
2019-05-26T10:29:00.761Z,8.10
2019-05-26T10:31:28.921Z,8.10
2019-05-26T10:33:57.707Z,8.10
2019-05-26T10:36:26.886Z,8.10
2019-05-26T10:38:55.683Z,8.10
2019-05-26T10:41:24.530Z,8.10
2019-05-26T10:43:55.028Z,8.20
2019-05-26T10:46:23.853Z,8.20
2019-05-26T10:48:52.743Z,8.10
2019-05-26T10:51:21.580Z,8.10
2019-05-26T10:53:51.899Z,8.20
2019-05-26T10:56:21.553Z,8.20
2019-05-26T10:58:50.462Z,8.20
2019-05-26T11:01:19.441Z,8.40
2019-05-26T11:03:48.295Z,8.40
2019-05-26T11:06:17.123Z,8.40
2019-05-26T11:08:45.885Z,8.40
2019-05-26T11:11:14.738Z,8.40
2019-05-26T11:13:45.272Z,8.40
2019-05-26T11:16:14.054Z,8.40
2019-05-26T11:18:42.901Z,8.40
2019-05-26T11:21:12.481Z,8.40
2019-05-26T11:23:41.558Z,8.40
2019-05-26T11:26:10.427Z,8.40
2019-05-26T11:28:39.154Z,8.40
2019-05-26T11:31:08.006Z,8.50
2019-05-26T11:33:36.789Z,8.40
2019-05-26T11:36:06.605Z,8.50
2019-05-26T11:38:35.818Z,8.40
2019-05-26T11:41:04.711Z,8.50
2019-05-26T11:43:33.515Z,8.40
2019-05-26T11:46:02.355Z,8.50
2019-05-26T11:48:31.148Z,8.50
2019-05-26T11:51:00.139Z,8.50
2019-05-26T11:53:28.955Z,8.50
2019-05-26T11:55:57.756Z,8.50
2019-05-26T11:58:26.903Z,8.50
2019-05-26T12:00:58.559Z,8.50
2019-05-26T12:03:27.418Z,8.50
2019-05-26T12:05:56.219Z,8.40
2019-05-26T12:08:25.061Z,8.50
2019-05-26T12:10:58.145Z,8.50
2019-05-26T12:13:24.337Z,8.50
2019-05-26T12:15:53.183Z,8.60
2019-05-26T12:18:21.990Z,8.50
2019-05-26T12:20:50.786Z,8.60
2019-05-26T12:23:19.626Z,8.60
2019-05-26T12:25:48.464Z,8.70
2019-05-26T12:28:17.276Z,8.70
2019-05-26T12:30:46.076Z,8.70
2019-05-26T12:33:14.952Z,8.70
2019-05-26T12:35:45.290Z,8.70
2019-05-26T12:38:14.310Z,8.80
2019-05-26T12:40:43.433Z,8.80
2019-05-26T12:43:12.262Z,8.80
2019-05-26T12:45:41.340Z,8.80
2019-05-26T12:48:10.145Z,8.80
2019-05-26T12:50:39.281Z,8.80
2019-05-26T12:53:08.283Z,8.80
2019-05-26T12:55:37.138Z,8.70
2019-05-26T12:58:05.964Z,8.70
2019-05-26T13:00:48.226Z,8.80
2019-05-26T13:03:05.620Z,8.90
2019-05-26T13:05:34.432Z,8.90
2019-05-26T13:08:03.700Z,8.80
2019-05-26T13:10:32.515Z,8.80
2019-05-26T13:13:01.687Z,8.80
2019-05-26T13:15:30.500Z,8.90
2019-05-26T13:17:59.300Z,9.00
2019-05-26T13:20:28.333Z,9.10
2019-05-26T13:22:57.180Z,9.10
2019-05-26T13:25:26.334Z,9.10
2019-05-26T13:27:55.508Z,9.00
2019-05-26T13:30:26.137Z,9.10
2019-05-26T13:32:54.877Z,9.10
2019-05-26T13:35:23.864Z,9.00
2019-05-26T13:37:52.799Z,9.00
2019-05-26T13:40:21.612Z,9.00
2019-05-26T13:42:50.572Z,9.10
2019-05-26T13:45:22.971Z,9.10
2019-05-26T13:47:50.999Z,9.00
2019-05-26T13:50:20.741Z,9.00
2019-05-26T13:52:49.534Z,8.90
2019-05-26T13:55:18.400Z,9.00
2019-05-26T13:57:49.369Z,9.10
2019-05-26T14:00:18.274Z,9.00
2019-05-26T14:02:47.281Z,9.10
2019-05-26T14:05:16.205Z,9.00
2019-05-26T14:07:45.067Z,9.00
2019-05-26T14:10:16.947Z,9.00
2019-05-26T14:12:46.073Z,8.90
2019-05-26T14:15:15.071Z,8.90
2019-05-26T14:17:44.073Z,9.00
2019-05-26T14:20:13.221Z,9.00
2019-05-26T14:22:42.044Z,9.10
2019-05-26T14:25:11.437Z,9.20
2019-05-26T14:27:41.261Z,9.10
2019-05-26T14:30:10.327Z,9.20
2019-05-26T14:32:39.166Z,9.10
2019-05-26T14:35:08.074Z,9.20
2019-05-26T14:37:36.887Z,9.10
2019-05-26T14:40:08.151Z,9.20
2019-05-26T14:42:36.945Z,9.20
2019-05-26T14:45:09.990Z,9.20
2019-05-26T14:47:38.838Z,9.20
2019-05-26T14:50:08.824Z,9.30
2019-05-26T14:52:37.919Z,9.20
2019-05-26T14:55:07.621Z,9.30
2019-05-26T14:57:36.453Z,9.30
2019-05-26T15:00:10.307Z,9.30
2019-05-26T15:02:39.180Z,9.30
2019-05-26T15:05:08.448Z,9.40
2019-05-26T15:07:37.171Z,9.40
2019-05-26T15:10:09.675Z,9.30
2019-05-26T15:12:38.524Z,9.30
2019-05-26T15:15:08.245Z,9.30
2019-05-26T15:17:38.130Z,9.20
2019-05-26T15:20:07.893Z,9.30
2019-05-26T15:22:38.192Z,9.30
2019-05-26T15:25:07.702Z,9.30
2019-05-26T15:27:36.783Z,9.40
2019-05-26T15:30:06.612Z,9.30
2019-05-26T15:32:35.616Z,9.40
2019-05-26T15:35:06.304Z,9.40
2019-05-26T15:37:35.264Z,9.40
2019-05-26T15:40:06.075Z,9.40
2019-05-26T15:42:34.879Z,9.40
2019-05-26T15:45:04.543Z,9.40
2019-05-26T15:47:33.279Z,9.50
2019-05-26T15:50:02.092Z,9.40
2019-05-26T15:52:30.957Z,9.40
2019-05-26T15:54:59.777Z,9.50
2019-05-26T15:57:28.584Z,9.40
2019-05-26T15:59:57.813Z,9.40
2019-05-26T16:02:26.652Z,9.40
2019-05-26T16:04:58.810Z,9.40
2019-05-26T16:07:25.913Z,9.40
2019-05-26T16:09:57.300Z,9.30
2019-05-26T16:12:26.138Z,9.40
2019-05-26T16:14:54.945Z,9.30
2019-05-26T16:17:24.132Z,9.40
2019-05-26T16:19:52.973Z,9.40
2019-05-26T16:22:21.783Z,9.40
2019-05-26T16:24:50.613Z,9.50
2019-05-26T16:27:20.142Z,9.50
2019-05-26T16:29:48.881Z,9.50
2019-05-26T16:32:18.983Z,9.60
2019-05-26T16:34:47.945Z,9.60
2019-05-26T16:37:20.261Z,9.70
2019-05-26T16:39:49.082Z,9.70
2019-05-26T16:42:18.346Z,9.70
2019-05-26T16:44:47.194Z,9.80
2019-05-26T16:47:16.009Z,9.80
2019-05-26T16:49:44.826Z,9.80
2019-05-26T16:52:14.023Z,9.90
2019-05-26T16:54:42.883Z,9.90
2019-05-26T16:57:11.747Z,9.90
2019-05-26T16:59:40.923Z,9.90
2019-05-26T17:02:10.073Z,9.90
2019-05-26T17:04:38.932Z,9.90
2019-05-26T17:07:07.739Z,9.90
2019-05-26T17:09:36.605Z,9.90
2019-05-26T17:12:05.922Z,9.90
2019-05-26T17:14:34.761Z,9.90
2019-05-26T17:17:14.128Z,9.90
2019-05-26T17:19:34.110Z,10.00
2019-05-26T17:22:05.925Z,10.00
2019-05-26T17:24:34.757Z,10.00
2019-05-26T17:27:03.691Z,10.10
2019-05-26T17:29:32.506Z,10.10
2019-05-26T17:32:01.377Z,10.10
2019-05-26T17:34:30.136Z,10.10
2019-05-26T17:36:59.970Z,10.10
2019-05-26T17:39:28.743Z,10.20
2019-05-26T17:41:57.551Z,10.30
2019-05-26T17:44:28.368Z,10.30
2019-05-26T17:46:56.982Z,10.40
2019-05-26T17:49:25.870Z,10.40
2019-05-26T17:51:54.715Z,10.50
2019-05-26T17:54:23.540Z,10.50
2019-05-26T17:56:52.403Z,10.60
2019-05-26T17:59:21.679Z,10.60
2019-05-26T18:01:50.582Z,10.60
2019-05-26T18:04:22.414Z,10.60
2019-05-26T18:06:51.182Z,10.50
2019-05-26T18:09:20.063Z,10.60
2019-05-26T18:11:50.158Z,10.50
2019-05-26T18:14:20.352Z,10.60
2019-05-26T18:16:49.573Z,10.60
2019-05-26T18:19:20.139Z,10.50
2019-05-26T18:21:49.085Z,10.60
2019-05-26T18:24:17.917Z,10.60
2019-05-26T18:26:46.749Z,10.60
2019-05-26T18:29:15.652Z,10.70
2019-05-26T18:31:44.754Z,10.70
2019-05-26T18:34:13.953Z,10.70
2019-05-26T18:36:42.769Z,10.70
2019-05-26T18:39:11.562Z,10.80
2019-05-26T18:41:40.415Z,10.80
2019-05-26T18:44:10.304Z,10.80
2019-05-26T18:46:41.088Z,10.80
2019-05-26T18:49:09.965Z,10.80
2019-05-26T18:51:40.118Z,10.90
2019-05-26T18:54:10.412Z,10.90
2019-05-26T18:56:39.379Z,10.80
2019-05-26T18:59:09.436Z,10.80
2019-05-26T19:01:39.762Z,10.80
2019-05-26T19:04:09.275Z,10.80
2019-05-26T19:06:38.577Z,10.70
2019-05-26T19:09:10.911Z,10.70
2019-05-26T19:11:39.733Z,10.70
2019-05-26T19:14:11.153Z,10.70
2019-05-26T19:16:40.942Z,10.70
2019-05-26T19:19:09.970Z,10.70
2019-05-26T19:21:40.204Z,10.60
2019-05-26T19:24:09.154Z,10.60
2019-05-26T19:26:38.005Z,10.50
2019-05-26T19:29:06.886Z,10.50
2019-05-26T19:31:35.773Z,10.50
2019-05-26T19:34:06.770Z,10.50
2019-05-26T19:36:37.237Z,10.50
2019-05-26T19:39:10.033Z,10.50
2019-05-26T19:41:39.531Z,10.50
2019-05-26T19:44:09.538Z,10.50
2019-05-26T19:46:38.471Z,10.50
2019-05-26T19:49:07.878Z,10.50
2019-05-26T19:51:36.675Z,10.50
2019-05-26T19:54:05.510Z,10.50
2019-05-26T19:56:34.344Z,10.50
2019-05-26T19:59:03.167Z,10.50
2019-05-26T20:01:32.084Z,10.50
2019-05-26T20:04:02.877Z,10.50
2019-05-26T20:06:31.412Z,10.50
2019-05-26T20:09:00.313Z,10.50
2019-05-26T20:11:29.049Z,10.50
2019-05-26T20:14:00.738Z,10.50
2019-05-26T20:16:32.217Z,10.40
2019-05-26T20:19:04.433Z,10.40
2019-05-26T20:21:33.262Z,10.40
2019-05-26T20:24:02.068Z,10.30
2019-05-26T20:26:32.107Z,10.30
2019-05-26T20:29:02.448Z,10.20
2019-05-26T20:31:31.380Z,10.30
2019-05-26T20:34:00.275Z,10.20
2019-05-26T20:36:29.064Z,10.20
2019-05-26T20:38:57.946Z,10.10
2019-05-26T20:41:26.774Z,10.20
2019-05-26T20:43:55.624Z,10.10
2019-05-26T20:46:24.500Z,10.10
2019-05-26T20:48:53.323Z,10.10
2019-05-26T20:51:22.077Z,10.10
2019-05-26T20:53:50.944Z,10.10
2019-05-26T20:56:20.876Z,10.10
2019-05-26T20:58:51.425Z,10.10
2019-05-26T21:01:22.009Z,10.10
2019-05-26T21:03:51.846Z,10.10
2019-05-26T21:06:20.699Z,10.10
2019-05-26T21:08:51.197Z,10.10
2019-05-26T21:11:21.602Z,10.00
2019-05-26T21:13:50.472Z,10.00
2019-05-26T21:16:21.097Z,10.00
2019-05-26T21:18:49.905Z,10.00
2019-05-26T21:21:19.836Z,9.90
2019-05-26T21:23:48.673Z,9.90
2019-05-26T21:26:17.594Z,9.90
2019-05-26T21:28:46.852Z,9.90
2019-05-26T21:31:17.553Z,9.90
2019-05-26T21:33:46.172Z,9.90
2019-05-26T21:36:15.002Z,9.90
2019-05-26T21:38:43.810Z,9.90
2019-05-26T21:41:12.724Z,9.90
2019-05-26T21:43:43.211Z,9.90
2019-05-26T21:46:12.184Z,9.80
2019-05-26T21:48:41.622Z,9.80
2019-05-26T21:51:10.445Z,9.80
2019-05-26T21:53:39.273Z,9.80
2019-05-26T21:56:09.564Z,9.80
2019-05-26T21:58:38.287Z,9.70
2019-05-26T22:01:07.234Z,9.70
2019-05-26T22:03:36.049Z,9.70
2019-05-26T22:06:05.437Z,9.70
2019-05-26T22:08:35.296Z,9.70
2019-05-26T22:11:04.329Z,9.70
2019-05-26T22:13:33.273Z,9.70
2019-05-26T22:16:02.431Z,9.70
2019-05-26T22:18:31.152Z,9.70
2019-05-26T22:21:01.202Z,9.70
2019-05-26T22:23:29.981Z,9.70
2019-05-26T22:25:58.795Z,9.70
2019-05-26T22:28:27.633Z,9.70
2019-05-26T22:30:56.429Z,9.70
2019-05-26T22:33:28.273Z,9.70
2019-05-26T22:35:56.826Z,9.70
2019-05-26T22:38:25.649Z,9.70
2019-05-26T22:40:54.480Z,9.70
2019-05-26T22:43:23.343Z,9.70
2019-05-26T22:45:52.150Z,9.70
2019-05-26T22:48:22.504Z,9.70
2019-05-26T22:50:52.828Z,9.70
2019-05-26T22:53:22.916Z,9.70
2019-05-26T22:55:52.239Z,9.70
2019-05-26T22:58:21.087Z,9.80
2019-05-26T23:00:51.260Z,9.80
2019-05-26T23:03:20.103Z,9.90
2019-05-26T23:05:48.928Z,9.90
2019-05-26T23:08:19.270Z,9.80
2019-05-26T23:10:48.076Z,9.90
2019-05-26T23:13:16.876Z,9.80
2019-05-26T23:15:45.795Z,9.90
2019-05-26T23:18:14.595Z,9.90
2019-05-26T23:20:43.801Z,9.90
2019-05-26T23:23:12.699Z,9.70
2019-05-26T23:25:43.732Z,9.50
2019-05-26T23:28:12.533Z,9.30
2019-05-26T23:30:41.363Z,9.10
2019-05-26T23:33:10.089Z,8.90
2019-05-26T23:35:38.945Z,8.80
2019-05-26T23:38:08.607Z,8.60
2019-05-26T23:40:37.401Z,8.50
2019-05-26T23:43:06.222Z,8.40
2019-05-26T23:45:35.047Z,8.30
2019-05-26T23:48:03.988Z,8.20
2019-05-26T23:50:33.410Z,8.10
2019-05-26T23:53:02.263Z,8.00
2019-05-26T23:55:31.078Z,7.90
2019-05-26T23:57:59.875Z,7.90
